sensor_id;sensor_type;location;lat;lon;timestamp;pressure;altitude;pressure_sealevel;temperature;humidity
71109;BME280;59614;51.012;-1.648;2022-10-23T00:02:20;99873.25;;;13.54;100.00
71109;BME280;59614;51.012;-1.648;2022-10-23T00:04:45;99860.00;;;13.54;100.00
71109;BME280;59614;51.012;-1.648;2022-10-23T00:07:14;99860.00;;;13.54;100.00
71109;BME280;59614;51.012;-1.648;2022-10-23T00:09:39;99855.63;;;13.53;100.00
71109;BME280;59614;51.012;-1.648;2022-10-23T00:12:05;99865.31;;;13.54;100.00
71109;BME280;59614;51.012;-1.648;2022-10-23T00:14:30;99844.00;;;13.57;100.00
71109;BME280;59614;51.012;-1.648;2022-10-23T00:16:56;99853.75;;;13.56;100.00
71109;BME280;59614;51.012;-1.648;2022-10-23T00:19:21;99854.47;;;13.60;100.00
71109;BME280;59614;51.012;-1.648;2022-10-23T00:21:47;99840.31;;;13.61;100.00
71109;BME280;59614;51.012;-1.648;2022-10-23T00:24:12;99829.69;;;13.61;100.00
71109;BME280;59614;51.012;-1.648;2022-10-23T00:26:39;99824.25;;;13.64;100.00
71109;BME280;59614;51.012;-1.648;2022-10-23T00:29:05;99827.72;;;13.66;100.00
71109;BME280;59614;51.012;-1.648;2022-10-23T00:31:31;99822.31;;;13.69;100.00
71109;BME280;59614;51.012;-1.648;2022-10-23T00:33:57;99818.72;;;13.70;100.00
71109;BME280;59614;51.012;-1.648;2022-10-23T00:36:22;99806.38;;;13.69;100.00
71109;BME280;59614;51.012;-1.648;2022-10-23T00:38:49;99808.16;;;13.69;100.00
71109;BME280;59614;51.012;-1.648;2022-10-23T00:41:18;99797.50;;;13.70;100.00
71109;BME280;59614;51.012;-1.648;2022-10-23T00:46:30;99793.03;;;13.72;100.00
71109;BME280;59614;51.012;-1.648;2022-10-23T00:48:57;99784.06;;;13.75;100.00
71109;BME280;59614;51.012;-1.648;2022-10-23T00:51:25;99790.22;;;13.75;100.00
71109;BME280;59614;51.012;-1.648;2022-10-23T00:53:54;99776.03;;;13.77;100.00
71109;BME280;59614;51.012;-1.648;2022-10-23T00:56:21;99777.78;;;13.78;100.00
71109;BME280;59614;51.012;-1.648;2022-10-23T00:58:46;99767.16;;;13.78;100.00
71109;BME280;59614;51.012;-1.648;2022-10-23T01:01:18;99757.47;;;13.77;100.00
71109;BME280;59614;51.012;-1.648;2022-10-23T01:03:45;99747.69;;;13.79;100.00
71109;BME280;59614;51.012;-1.648;2022-10-23T01:06:30;99749.41;;;13.80;100.00
71109;BME280;59614;51.012;-1.648;2022-10-23T01:09:17;99748.59;;;13.78;100.00
71109;BME280;59614;51.012;-1.648;2022-10-23T01:17:37;99731.09;;;13.73;100.00
71109;BME280;59614;51.012;-1.648;2022-10-23T01:20:42;99723.00;;;13.77;100.00
71109;BME280;59614;51.012;-1.648;2022-10-23T01:26:10;99711.59;;;13.74;100.00
71109;BME280;59614;51.012;-1.648;2022-10-23T01:28:52;99723.88;;;13.77;100.00
71109;BME280;59614;51.012;-1.648;2022-10-23T01:31:34;99738.91;;;13.77;100.00
71109;BME280;59614;51.012;-1.648;2022-10-23T01:34:18;99727.25;;;13.81;100.00
71109;BME280;59614;51.012;-1.648;2022-10-23T01:36:47;99712.19;;;13.81;100.00
71109;BME280;59614;51.012;-1.648;2022-10-23T01:39:21;99686.59;;;13.80;100.00
71109;BME280;59614;51.012;-1.648;2022-10-23T01:42:32;99640.38;;;13.86;100.00
71109;BME280;59614;51.012;-1.648;2022-10-23T01:44:55;99649.47;;;13.80;100.00
71109;BME280;59614;51.012;-1.648;2022-10-23T01:47:26;99668.00;;;13.82;100.00
71109;BME280;59614;51.012;-1.648;2022-10-23T01:49:54;99653.91;;;13.80;100.00
71109;BME280;59614;51.012;-1.648;2022-10-23T01:52:21;99669.84;;;13.80;100.00
71109;BME280;59614;51.012;-1.648;2022-10-23T01:54:49;99671.56;;;13.81;100.00
71109;BME280;59614;51.012;-1.648;2022-10-23T01:57:17;99662.81;;;13.79;100.00
71109;BME280;59614;51.012;-1.648;2022-10-23T01:59:52;99676.06;;;13.79;100.00
71109;BME280;59614;51.012;-1.648;2022-10-23T02:02:21;99660.97;;;13.81;100.00
71109;BME280;59614;51.012;-1.648;2022-10-23T02:05:11;99656.56;;;13.80;100.00
71109;BME280;59614;51.012;-1.648;2022-10-23T02:07:39;99648.50;;;13.83;100.00
71109;BME280;59614;51.012;-1.648;2022-10-23T02:10:07;99637.94;;;13.81;100.00
71109;BME280;59614;51.012;-1.648;2022-10-23T02:15:17;99605.25;;;13.81;100.00
71109;BME280;59614;51.012;-1.648;2022-10-23T02:18:10;99599.03;;;13.82;100.00
71109;BME280;59614;51.012;-1.648;2022-10-23T02:20:49;99599.69;;;13.87;100.00
71109;BME280;59614;51.012;-1.648;2022-10-23T02:23:21;99578.63;;;13.84;100.00
71109;BME280;59614;51.012;-1.648;2022-10-23T02:26:00;99574.28;;;13.81;100.00
71109;BME280;59614;51.012;-1.648;2022-10-23T02:28:30;99567.19;;;13.82;100.00
71109;BME280;59614;51.012;-1.648;2022-10-23T02:30:58;99568.06;;;13.82;100.00
71109;BME280;59614;51.012;-1.648;2022-10-23T02:33:26;99571.72;;;13.80;100.00
71109;BME280;59614;51.012;-1.648;2022-10-23T02:35:52;99571.63;;;13.81;100.00
71109;BME280;59614;51.012;-1.648;2022-10-23T02:38:39;99564.56;;;13.82;100.00
71109;BME280;59614;51.012;-1.648;2022-10-23T02:41:40;99561.09;;;13.80;100.00
71109;BME280;59614;51.012;-1.648;2022-10-23T02:47:12;99527.41;;;13.82;100.00
71109;BME280;59614;51.012;-1.648;2022-10-23T02:49:52;99521.03;;;13.86;100.00
71109;BME280;59614;51.012;-1.648;2022-10-23T03:01:02;99497.81;;;13.91;100.00
71109;BME280;59614;51.012;-1.648;2022-10-23T03:03:33;99489.94;;;13.89;100.00
71109;BME280;59614;51.012;-1.648;2022-10-23T03:05:59;99475.59;;;13.94;100.00
71109;BME280;59614;51.012;-1.648;2022-10-23T03:08:25;99450.88;;;13.93;100.00
71109;BME280;59614;51.012;-1.648;2022-10-23T03:10:50;99450.78;;;13.95;100.00
71109;BME280;59614;51.012;-1.648;2022-10-23T03:13:16;99443.06;;;13.90;100.00
71109;BME280;59614;51.012;-1.648;2022-10-23T03:15:42;99429.66;;;13.93;100.00
71109;BME280;59614;51.012;-1.648;2022-10-23T03:18:08;99433.72;;;14.00;100.00
71109;BME280;59614;51.012;-1.648;2022-10-23T03:20:33;99431.88;;;14.02;100.00
71109;BME280;59614;51.012;-1.648;2022-10-23T03:22:59;99418.75;;;13.99;100.00
71109;BME280;59614;51.012;-1.648;2022-10-23T03:25:24;99407.50;;;13.94;100.00
71109;BME280;59614;51.012;-1.648;2022-10-23T03:27:50;99400.31;;;13.96;100.00
71109;BME280;59614;51.012;-1.648;2022-10-23T03:30:15;99403.75;;;13.98;100.00
71109;BME280;59614;51.012;-1.648;2022-10-23T03:32:41;99375.50;;;13.97;100.00
71109;BME280;59614;51.012;-1.648;2022-10-23T03:35:07;99381.75;;;13.96;100.00
71109;BME280;59614;51.012;-1.648;2022-10-23T03:37:33;99405.47;;;13.99;100.00
71109;BME280;59614;51.012;-1.648;2022-10-23T03:39:58;99419.53;;;14.01;100.00
71109;BME280;59614;51.012;-1.648;2022-10-23T03:42:24;99435.31;;;14.04;100.00
71109;BME280;59614;51.012;-1.648;2022-10-23T03:44:49;99434.78;;;13.96;100.00
71109;BME280;59614;51.012;-1.648;2022-10-23T03:47:15;99421.13;;;13.86;100.00
71109;BME280;59614;51.012;-1.648;2022-10-23T03:49:40;99421.53;;;13.77;100.00
71109;BME280;59614;51.012;-1.648;2022-10-23T03:52:06;99444.50;;;13.78;100.00
71109;BME280;59614;51.012;-1.648;2022-10-23T03:54:32;99443.34;;;13.84;100.00
71109;BME280;59614;51.012;-1.648;2022-10-23T03:56:59;99432.00;;;13.80;100.00
71109;BME280;59614;51.012;-1.648;2022-10-23T03:59:25;99438.16;;;13.81;100.00
71109;BME280;59614;51.012;-1.648;2022-10-23T04:01:50;99428.50;;;13.80;100.00
71109;BME280;59614;51.012;-1.648;2022-10-23T04:04:16;99426.84;;;13.77;100.00
71109;BME280;59614;51.012;-1.648;2022-10-23T04:06:41;99409.00;;;13.81;100.00
71109;BME280;59614;51.012;-1.648;2022-10-23T04:09:07;99401.03;;;13.81;100.00
71109;BME280;59614;51.012;-1.648;2022-10-23T04:11:33;99393.31;;;13.76;100.00
71109;BME280;59614;51.012;-1.648;2022-10-23T04:13:58;99390.69;;;13.74;100.00
71109;BME280;59614;51.012;-1.648;2022-10-23T04:16:24;99384.47;;;13.75;100.00
71109;BME280;59614;51.012;-1.648;2022-10-23T04:18:49;99381.97;;;13.72;100.00
71109;BME280;59614;51.012;-1.648;2022-10-23T04:21:15;99389.94;;;13.72;100.00
71109;BME280;59614;51.012;-1.648;2022-10-23T04:23:41;99386.34;;;13.73;100.00
71109;BME280;59614;51.012;-1.648;2022-10-23T04:26:07;99380.41;;;13.68;100.00
71109;BME280;59614;51.012;-1.648;2022-10-23T04:28:32;99378.53;;;13.70;100.00
71109;BME280;59614;51.012;-1.648;2022-10-23T04:30:58;99370.59;;;13.70;100.00
71109;BME280;59614;51.012;-1.648;2022-10-23T04:33:23;99365.41;;;13.67;100.00
71109;BME280;59614;51.012;-1.648;2022-10-23T04:35:49;99357.59;;;13.64;100.00
71109;BME280;59614;51.012;-1.648;2022-10-23T04:38:15;99368.06;;;13.67;100.00
71109;BME280;59614;51.012;-1.648;2022-10-23T04:40:40;99357.59;;;13.64;100.00
71109;BME280;59614;51.012;-1.648;2022-10-23T04:43:06;99368.19;;;13.64;100.00
71109;BME280;59614;51.012;-1.648;2022-10-23T04:45:31;99377.81;;;13.67;100.00
71109;BME280;59614;51.012;-1.648;2022-10-23T04:47:57;99380.53;;;13.65;100.00
71109;BME280;59614;51.012;-1.648;2022-10-23T04:50:22;99380.41;;;13.68;100.00
71109;BME280;59614;51.012;-1.648;2022-10-23T04:52:53;99390.22;;;13.66;100.00
71109;BME280;59614;51.012;-1.648;2022-10-23T04:55:18;99372.56;;;13.65;100.00
71109;BME280;59614;51.012;-1.648;2022-10-23T04:57:44;99362.06;;;13.64;100.00
71109;BME280;59614;51.012;-1.648;2022-10-23T05:00:12;99358.59;;;13.62;100.00
71109;BME280;59614;51.012;-1.648;2022-10-23T05:02:38;99345.44;;;13.60;100.00
71109;BME280;59614;51.012;-1.648;2022-10-23T05:05:04;99334.66;;;13.63;100.00
71109;BME280;59614;51.012;-1.648;2022-10-23T05:07:30;99336.38;;;13.64;100.00
71109;BME280;59614;51.012;-1.648;2022-10-23T05:09:55;99341.53;;;13.67;100.00
71109;BME280;59614;51.012;-1.648;2022-10-23T05:12:21;99346.78;;;13.69;100.00
71109;BME280;59614;51.012;-1.648;2022-10-23T05:14:47;99329.09;;;13.69;100.00
71109;BME280;59614;51.012;-1.648;2022-10-23T05:17:16;99343.28;;;13.68;100.00
71109;BME280;59614;51.012;-1.648;2022-10-23T05:19:53;99350.56;;;13.63;100.00
71109;BME280;59614;51.012;-1.648;2022-10-23T05:22:21;99352.28;;;13.64;100.00
71109;BME280;59614;51.012;-1.648;2022-10-23T05:24:50;99340.75;;;13.65;100.00
71109;BME280;59614;51.012;-1.648;2022-10-23T05:27:15;99349.72;;;13.63;100.00
71109;BME280;59614;51.012;-1.648;2022-10-23T05:29:41;99355.81;;;13.65;100.00
71109;BME280;59614;51.012;-1.648;2022-10-23T05:32:09;99358.38;;;13.66;100.00
71109;BME280;59614;51.012;-1.648;2022-10-23T05:34:38;99366.47;;;13.63;100.00
71109;BME280;59614;51.012;-1.648;2022-10-23T05:37:06;99337.19;;;13.66;100.00
71109;BME280;59614;51.012;-1.648;2022-10-23T05:39:33;99287.69;;;13.67;100.00
71109;BME280;59614;51.012;-1.648;2022-10-23T05:41:59;99271.75;;;13.67;100.00
71109;BME280;59614;51.012;-1.648;2022-10-23T05:44:25;99259.50;;;13.64;100.00
71109;BME280;59614;51.012;-1.648;2022-10-23T05:46:50;99287.09;;;13.60;100.00
71109;BME280;59614;51.012;-1.648;2022-10-23T05:49:16;99289.03;;;13.56;100.00
71109;BME280;59614;51.012;-1.648;2022-10-23T05:51:41;99286.22;;;13.59;100.00
71109;BME280;59614;51.012;-1.648;2022-10-23T05:54:07;99287.25;;;13.57;100.00
71109;BME280;59614;51.012;-1.648;2022-10-23T05:56:34;99269.53;;;13.57;100.00
71109;BME280;59614;51.012;-1.648;2022-10-23T05:58:59;99268.59;;;13.58;100.00
71109;BME280;59614;51.012;-1.648;2022-10-23T06:01:25;99294.13;;;13.61;100.00
71109;BME280;59614;51.012;-1.648;2022-10-23T06:03:50;99302.84;;;13.63;100.00
71109;BME280;59614;51.012;-1.648;2022-10-23T06:06:16;99311.59;;;13.65;100.00
71109;BME280;59614;51.012;-1.648;2022-10-23T06:08:41;99308.88;;;13.67;100.00
71109;BME280;59614;51.012;-1.648;2022-10-23T06:11:08;99313.31;;;13.66;100.00
71109;BME280;59614;51.012;-1.648;2022-10-23T06:13:34;99292.94;;;13.86;100.00
71109;BME280;59614;51.012;-1.648;2022-10-23T06:16:09;99320.69;;;13.79;100.00
71109;BME280;59614;51.012;-1.648;2022-10-23T06:18:35;99327.72;;;13.80;100.00
71109;BME280;59614;51.012;-1.648;2022-10-23T06:21:00;99332.88;;;13.83;100.00
71109;BME280;59614;51.012;-1.648;2022-10-23T06:23:26;99362.09;;;13.81;100.00
71109;BME280;59614;51.012;-1.648;2022-10-23T06:25:52;99358.47;;;13.84;100.00
71109;BME280;59614;51.012;-1.648;2022-10-23T06:28:18;99346.91;;;13.85;100.00
71109;BME280;59614;51.012;-1.648;2022-10-23T06:30:44;99314.47;;;13.80;100.00
71109;BME280;59614;51.012;-1.648;2022-10-23T06:33:09;99309.00;;;13.83;100.00
71109;BME280;59614;51.012;-1.648;2022-10-23T06:35:35;99299.16;;;13.85;100.00
71109;BME280;59614;51.012;-1.648;2022-10-23T06:38:00;99281.47;;;13.85;100.00
71109;BME280;59614;51.012;-1.648;2022-10-23T06:40:25;99261.28;;;13.83;100.00
71109;BME280;59614;51.012;-1.648;2022-10-23T06:42:51;99245.50;;;13.80;100.00
71109;BME280;59614;51.012;-1.648;2022-10-23T06:45:16;99246.53;;;13.77;100.00
71109;BME280;59614;51.012;-1.648;2022-10-23T06:47:42;99266.16;;;13.73;100.00
71109;BME280;59614;51.012;-1.648;2022-10-23T06:50:08;99276.97;;;13.68;100.00
71109;BME280;59614;51.012;-1.648;2022-10-23T06:52:33;99282.19;;;13.70;100.00
71109;BME280;59614;51.012;-1.648;2022-10-23T06:54:58;99299.00;;;13.70;100.00
71109;BME280;59614;51.012;-1.648;2022-10-23T06:57:24;99294.75;;;13.66;100.00
71109;BME280;59614;51.012;-1.648;2022-10-23T06:59:49;99316.09;;;13.63;100.00
71109;BME280;59614;51.012;-1.648;2022-10-23T07:02:15;99322.50;;;13.59;100.00
71109;BME280;59614;51.012;-1.648;2022-10-23T07:04:41;99326.91;;;13.58;100.00
71109;BME280;59614;51.012;-1.648;2022-10-23T07:07:06;99322.38;;;13.62;100.00
71109;BME280;59614;51.012;-1.648;2022-10-23T07:09:34;99328.38;;;13.66;100.00
71109;BME280;59614;51.012;-1.648;2022-10-23T07:12:00;99314.91;;;13.70;100.00
71109;BME280;59614;51.012;-1.648;2022-10-23T07:14:25;99300.72;;;13.71;100.00
71109;BME280;59614;51.012;-1.648;2022-10-23T07:16:51;99285.66;;;13.72;100.00
71109;BME280;59614;51.012;-1.648;2022-10-23T07:19:16;99286.81;;;13.66;100.00
71109;BME280;59614;51.012;-1.648;2022-10-23T07:21:42;99274.41;;;13.67;100.00
71109;BME280;59614;51.012;-1.648;2022-10-23T07:24:07;99260.28;;;13.66;100.00
71109;BME280;59614;51.012;-1.648;2022-10-23T07:26:33;99242.50;;;13.68;100.00
71109;BME280;59614;51.012;-1.648;2022-10-23T07:28:58;99234.56;;;13.68;100.00
71109;BME280;59614;51.012;-1.648;2022-10-23T07:31:24;99242.50;;;13.68;100.00
71109;BME280;59614;51.012;-1.648;2022-10-23T07:33:50;99226.59;;;13.68;100.00
71109;BME280;59614;51.012;-1.648;2022-10-23T07:36:17;99212.50;;;13.68;100.00
71109;BME280;59614;51.012;-1.648;2022-10-23T07:38:43;99218.78;;;13.65;100.00
71109;BME280;59614;51.012;-1.648;2022-10-23T07:41:11;99223.13;;;13.68;100.00
71109;BME280;59614;51.012;-1.648;2022-10-23T07:43:37;99230.09;;;13.69;100.00
71109;BME280;59614;51.012;-1.648;2022-10-23T07:46:03;99215.53;;;13.60;100.00
71109;BME280;59614;51.012;-1.648;2022-10-23T07:48:29;99228.19;;;13.72;100.00
71109;BME280;59614;51.012;-1.648;2022-10-23T07:50:59;99240.34;;;13.77;100.00
71109;BME280;59614;51.012;-1.648;2022-10-23T07:53:26;99236.75;;;13.78;100.00
71109;BME280;59614;51.012;-1.648;2022-10-23T07:56:00;99273.59;;;13.84;100.00
71109;BME280;59614;51.012;-1.648;2022-10-23T07:58:27;99295.09;;;13.78;100.00
71109;BME280;59614;51.012;-1.648;2022-10-23T08:00:55;99312.88;;;13.75;100.00
71109;BME280;59614;51.012;-1.648;2022-10-23T08:03:26;99311.31;;;13.71;100.00
71109;BME280;59614;51.012;-1.648;2022-10-23T08:05:53;99288.38;;;13.70;100.00
71109;BME280;59614;51.012;-1.648;2022-10-23T08:08:22;99296.38;;;13.69;100.00
71109;BME280;59614;51.012;-1.648;2022-10-23T08:10:48;99299.00;;;13.70;100.00
71109;BME280;59614;51.012;-1.648;2022-10-23T08:13:15;99273.88;;;13.78;100.00
71109;BME280;59614;51.012;-1.648;2022-10-23T08:15:42;99243.47;;;13.85;100.00
71109;BME280;59614;51.012;-1.648;2022-10-23T08:18:08;99234.44;;;13.89;100.00
71109;BME280;59614;51.012;-1.648;2022-10-23T08:20:41;99252.53;;;13.81;100.00
71109;BME280;59614;51.012;-1.648;2022-10-23T08:23:08;99251.22;;;13.89;100.00
71109;BME280;59614;51.012;-1.648;2022-10-23T08:25:33;99252.53;;;13.98;100.00
71109;BME280;59614;51.012;-1.648;2022-10-23T08:27:59;99235.84;;;13.96;100.00
71109;BME280;59614;51.012;-1.648;2022-10-23T08:30:25;99246.97;;;14.04;100.00
71109;BME280;59614;51.012;-1.648;2022-10-23T08:32:51;99219.50;;;14.05;100.00
71109;BME280;59614;51.012;-1.648;2022-10-23T08:35:17;99162.22;;;14.01;100.00
71109;BME280;59614;51.012;-1.648;2022-10-23T08:37:42;99142.78;;;14.01;100.00
71109;BME280;59614;51.012;-1.648;2022-10-23T08:40:16;99140.84;;;14.04;100.00
71109;BME280;59614;51.012;-1.648;2022-10-23T08:42:48;99144.72;;;14.15;100.00
71109;BME280;59614;51.012;-1.648;2022-10-23T08:45:34;99145.72;;;14.30;100.00
71109;BME280;59614;51.012;-1.648;2022-10-23T08:48:38;99138.59;;;14.30;100.00
71109;BME280;59614;51.012;-1.648;2022-10-23T08:54:01;99143.31;;;14.59;100.00
71109;BME280;59614;51.012;-1.648;2022-10-23T08:56:33;99139.69;;;14.44;100.00
71109;BME280;59614;51.012;-1.648;2022-10-23T08:59:08;99153.34;;;14.36;100.00
71109;BME280;59614;51.012;-1.648;2022-10-23T09:01:55;99157.00;;;14.51;100.00
71109;BME280;59614;51.012;-1.648;2022-10-23T09:04:22;99146.94;;;14.58;100.00
71109;BME280;59614;51.012;-1.648;2022-10-23T09:12:12;99164.63;;;14.57;100.00
71109;BME280;59614;51.012;-1.648;2022-10-23T09:17:29;99162.63;;;14.45;100.00
71109;BME280;59614;51.012;-1.648;2022-10-23T09:20:19;99159.72;;;14.49;100.00
71109;BME280;59614;51.012;-1.648;2022-10-23T09:22:52;99169.50;;;14.49;100.00
71109;BME280;59614;51.012;-1.648;2022-10-23T09:25:22;99168.16;;;14.58;100.00
71109;BME280;59614;51.012;-1.648;2022-10-23T09:27:49;99160.28;;;14.74;100.00
71109;BME280;59614;51.012;-1.648;2022-10-23T09:30:38;99164.72;;;14.56;100.00
71109;BME280;59614;51.012;-1.648;2022-10-23T09:33:18;99164.63;;;14.57;100.00
71109;BME280;59614;51.012;-1.648;2022-10-23T09:35:59;99152.97;;;14.77;100.00
71109;BME280;59614;51.012;-1.648;2022-10-23T09:38:37;99150.59;;;14.89;100.00
71109;BME280;59614;51.012;-1.648;2022-10-23T09:41:14;99152.47;;;14.87;100.00
71109;BME280;59614;51.012;-1.648;2022-10-23T09:43:41;99160.47;;;15.03;100.00
71109;BME280;59614;51.012;-1.648;2022-10-23T09:46:07;99163.47;;;14.96;100.00
71109;BME280;59614;51.012;-1.648;2022-10-23T09:48:34;99180.44;;;15.26;100.00
71109;BME280;59614;51.012;-1.648;2022-10-23T09:51:02;99175.19;;;14.92;100.00
71109;BME280;59614;51.012;-1.648;2022-10-23T09:53:38;99177.56;;;14.81;100.00
71109;BME280;59614;51.012;-1.648;2022-10-23T09:56:19;99174.16;;;15.11;100.00
71109;BME280;59614;51.012;-1.648;2022-10-23T09:59:04;99191.41;;;15.04;100.00
71109;BME280;59614;51.012;-1.648;2022-10-23T10:01:32;99192.97;;;15.08;100.00
71109;BME280;59614;51.012;-1.648;2022-10-23T10:04:00;99199.97;;;15.09;100.00
71109;BME280;59614;51.012;-1.648;2022-10-23T10:06:29;99198.94;;;14.95;100.00
71109;BME280;59614;51.012;-1.648;2022-10-23T10:08:57;99191.06;;;15.10;100.00
71109;BME280;59614;51.012;-1.648;2022-10-23T10:18:49;99195.63;;;15.56;100.00
71109;BME280;59614;51.012;-1.648;2022-10-23T10:21:27;99191.91;;;15.58;99.33
71109;BME280;59614;51.012;-1.648;2022-10-23T10:24:11;99214.44;;;15.83;99.97
71109;BME280;59614;51.012;-1.648;2022-10-23T10:26:55;99212.25;;;15.43;98.01
71109;BME280;59614;51.012;-1.648;2022-10-23T10:29:38;99212.25;;;15.43;99.87
71109;BME280;59614;51.012;-1.648;2022-10-23T10:38:12;99174.06;;;15.60;99.60
71109;BME280;59614;51.012;-1.648;2022-10-23T10:40:46;99155.53;;;15.75;98.60
71109;BME280;59614;51.012;-1.648;2022-10-23T10:43:34;99175.25;;;15.87;100.00
71109;BME280;59614;51.012;-1.648;2022-10-23T10:48:48;99170.47;;;15.62;96.11
71109;BME280;59614;51.012;-1.648;2022-10-23T10:51:25;99162.81;;;15.55;96.80
71109;BME280;59614;51.012;-1.648;2022-10-23T10:56:47;99167.41;;;15.53;96.86
71109;BME280;59614;51.012;-1.648;2022-10-23T10:59:26;99149.84;;;15.81;97.49
71109;BME280;59614;51.012;-1.648;2022-10-23T11:02:04;99157.41;;;15.73;98.47
71109;BME280;59614;51.012;-1.648;2022-10-23T11:04:44;99162.97;;;16.15;96.21
71109;BME280;59614;51.012;-1.648;2022-10-23T11:07:14;99156.91;;;16.13;94.40
71109;BME280;59614;51.012;-1.648;2022-10-23T11:09:43;99152.25;;;15.70;96.51
71109;BME280;59614;51.012;-1.648;2022-10-23T11:12:16;99144.81;;;15.60;97.69
71109;BME280;59614;51.012;-1.648;2022-10-23T11:14:42;99146.13;;;15.84;96.67
71109;BME280;59614;51.012;-1.648;2022-10-23T11:17:25;99141.31;;;16.50;96.51
71109;BME280;59614;51.012;-1.648;2022-10-23T11:22:37;99135.81;;;16.53;93.37
71109;BME280;59614;51.012;-1.648;2022-10-23T11:38:15;99093.09;;;16.98;91.43
71109;BME280;59614;51.012;-1.648;2022-10-23T11:40:50;99098.66;;;17.08;88.11
71109;BME280;59614;51.012;-1.648;2022-10-23T11:43:31;99104.50;;;16.71;90.08
71109;BME280;59614;51.012;-1.648;2022-10-23T11:45:58;99103.38;;;16.46;89.32
71109;BME280;59614;51.012;-1.648;2022-10-23T11:48:53;99102.81;;;16.27;88.19
71109;BME280;59614;51.012;-1.648;2022-10-23T11:51:37;99096.91;;;16.21;88.53
71109;BME280;59614;51.012;-1.648;2022-10-23T11:56:35;99082.44;;;16.69;87.20
71109;BME280;59614;51.012;-1.648;2022-10-23T12:01:48;99059.63;;;17.07;87.58
71109;BME280;59614;51.012;-1.648;2022-10-23T12:06:47;99046.59;;;17.02;86.97
71109;BME280;59614;51.012;-1.648;2022-10-23T12:10:22;99033.97;;;16.91;86.23
71109;BME280;59614;51.012;-1.648;2022-10-23T12:12:25;99044.63;;;16.91;85.94
71109;BME280;59614;51.012;-1.648;2022-10-23T12:14:52;99046.13;;;16.54;86.99
71109;BME280;59614;51.012;-1.648;2022-10-23T12:25:19;99027.59;;;16.94;90.51
71109;BME280;59614;51.012;-1.648;2022-10-23T12:27:57;99004.72;;;16.90;85.53
71109;BME280;59614;51.012;-1.648;2022-10-23T12:33:28;99012.56;;;16.78;87.87
71109;BME280;59614;51.012;-1.648;2022-10-23T12:36:15;99018.94;;;16.34;87.11
71109;BME280;59614;51.012;-1.648;2022-10-23T12:38:45;98998.41;;;16.36;87.39
71109;BME280;59614;51.012;-1.648;2022-10-23T12:43:41;98978.47;;;16.71;86.06
71109;BME280;59614;51.012;-1.648;2022-10-23T12:48:53;98951.34;;;16.91;86.18
71109;BME280;59614;51.012;-1.648;2022-10-23T12:51:29;98947.16;;;17.02;88.82
71109;BME280;59614;51.012;-1.648;2022-10-23T12:53:55;98944.19;;;16.92;87.56
71109;BME280;59614;51.012;-1.648;2022-10-23T12:56:21;98946.78;;;16.93;86.54
71109;BME280;59614;51.012;-1.648;2022-10-23T12:58:50;98936.41;;;17.16;87.64
71109;BME280;59614;51.012;-1.648;2022-10-23T13:01:29;98919.97;;;17.09;84.02
71109;BME280;59614;51.012;-1.648;2022-10-23T13:04:03;98916.25;;;17.25;86.54
71109;BME280;59614;51.012;-1.648;2022-10-23T13:06:30;98905.81;;;17.22;84.23
71109;BME280;59614;51.012;-1.648;2022-10-23T13:08:56;98909.91;;;17.00;83.78
71109;BME280;59614;51.012;-1.648;2022-10-23T13:11:21;98920.94;;;16.81;85.13
71109;BME280;59614;51.012;-1.648;2022-10-23T13:13:49;98911.09;;;16.41;86.72
71109;BME280;59614;51.012;-1.648;2022-10-23T13:16:23;98914.72;;;16.40;88.28
71109;BME280;59614;51.012;-1.648;2022-10-23T13:18:49;98911.13;;;16.27;85.65
71109;BME280;59614;51.012;-1.648;2022-10-23T13:21:18;98906.16;;;16.35;84.45
71109;BME280;59614;51.012;-1.648;2022-10-23T13:23:44;98898.53;;;16.43;84.50
71109;BME280;59614;51.012;-1.648;2022-10-23T13:26:22;98889.38;;;16.47;83.21
71109;BME280;59614;51.012;-1.648;2022-10-23T13:28:49;98875.72;;;16.79;83.63
71109;BME280;59614;51.012;-1.648;2022-10-23T13:33:48;98859.59;;;16.55;84.07
71109;BME280;59614;51.012;-1.648;2022-10-23T13:38:58;98857.69;;;16.30;88.18
71109;BME280;59614;51.012;-1.648;2022-10-23T13:41:25;98861.91;;;16.19;89.21
71109;BME280;59614;51.012;-1.648;2022-10-23T13:43:52;98852.25;;;16.04;89.69
71109;BME280;59614;51.012;-1.648;2022-10-23T13:46:22;98867.09;;;15.94;90.74
71109;BME280;59614;51.012;-1.648;2022-10-23T13:48:49;98871.19;;;15.85;90.99
71109;BME280;59614;51.012;-1.648;2022-10-23T13:51:19;98851.13;;;15.94;92.50
71109;BME280;59614;51.012;-1.648;2022-10-23T13:53:46;98822.81;;;15.93;92.15
71109;BME280;59614;51.012;-1.648;2022-10-23T13:56:14;98812.69;;;16.12;93.63
71109;BME280;59614;51.012;-1.648;2022-10-23T13:58:40;98806.81;;;16.34;95.27
71109;BME280;59614;51.012;-1.648;2022-10-23T14:01:15;98797.81;;;16.23;94.73
71109;BME280;59614;51.012;-1.648;2022-10-23T14:03:43;98787.44;;;16.05;96.70
71109;BME280;59614;51.012;-1.648;2022-10-23T14:06:09;98777.28;;;15.83;96.34
71109;BME280;59614;51.012;-1.648;2022-10-23T14:08:34;98776.63;;;15.79;98.24
71109;BME280;59614;51.012;-1.648;2022-10-23T14:11:00;98771.91;;;15.70;99.48
71109;BME280;59614;51.012;-1.648;2022-10-23T14:13:25;98775.84;;;15.50;97.93
71109;BME280;59614;51.012;-1.648;2022-10-23T14:15:54;98768.81;;;15.49;98.79
71109;BME280;59614;51.012;-1.648;2022-10-23T14:18:20;98776.59;;;15.37;97.98
71109;BME280;59614;51.012;-1.648;2022-10-23T14:20:46;98781.38;;;15.32;98.17
71109;BME280;59614;51.012;-1.648;2022-10-23T14:23:11;98786.03;;;15.28;97.39
71109;BME280;59614;51.012;-1.648;2022-10-23T14:25:37;98806.44;;;15.28;98.21
71109;BME280;59614;51.012;-1.648;2022-10-23T14:28:02;98832.34;;;15.24;100.00
71109;BME280;59614;51.012;-1.648;2022-10-23T14:30:28;98840.59;;;15.20;100.00
71109;BME280;59614;51.012;-1.648;2022-10-23T14:32:53;98828.53;;;15.14;100.00
71109;BME280;59614;51.012;-1.648;2022-10-23T14:35:19;98817.13;;;14.97;100.00
71109;BME280;59614;51.012;-1.648;2022-10-23T14:37:45;98806.50;;;14.83;100.00